createdAt,value
2023-02-27T00:02:59.767Z,0.70
2023-02-27T00:06:31.484Z,0.70
2023-02-27T00:10:12.069Z,0.66
2023-02-27T00:13:51.057Z,0.56
2023-02-27T00:17:31.448Z,0.51
2023-02-27T00:20:57.445Z,0.46
2023-02-27T00:24:22.391Z,0.38
2023-02-27T00:27:56.282Z,0.36
2023-02-27T00:31:35.227Z,0.32
2023-02-27T00:35:18.851Z,0.21
2023-02-27T00:39:06.474Z,0.13
2023-02-27T00:42:22.639Z,0.13
2023-02-27T00:45:49.282Z,0.07
2023-02-27T00:49:01.594Z,0.07
2023-02-27T00:52:49.748Z,-0.01
2023-02-27T00:56:29.642Z,-0.04
2023-02-27T01:00:17.230Z,-0.09
2023-02-27T01:04:04.820Z,-0.16
2023-02-27T01:07:45.735Z,-0.18
2023-02-27T01:11:35.862Z,-0.21
2023-02-27T01:15:23.480Z,-0.22
2023-02-27T01:19:09.920Z,-0.24
2023-02-27T01:22:45.037Z,-0.27
2023-02-27T01:26:32.621Z,-0.21
2023-02-27T01:30:05.822Z,-0.31
2023-02-27T01:33:52.284Z,-0.34
2023-02-27T01:37:30.086Z,-0.33
2023-02-27T01:41:17.368Z,-0.35
2023-02-27T01:45:07.005Z,-0.37
2023-02-27T01:48:53.274Z,-0.37
2023-02-27T01:52:33.063Z,-0.37
2023-02-27T01:56:02.970Z,-0.40
2023-02-27T01:59:50.526Z,-0.39
2023-02-27T02:03:38.077Z,-0.39
2023-02-27T02:07:07.187Z,-0.40
2023-02-27T02:10:51.004Z,-0.41
2023-02-27T02:14:38.918Z,-0.43
2023-02-27T02:18:33.855Z,-0.44
2023-02-27T02:22:18.099Z,-0.41
2023-02-27T02:26:24.783Z,-0.53
2023-02-27T02:30:33.640Z,-0.56
2023-02-27T02:34:57.875Z,-0.58
2023-02-27T02:38:45.478Z,-0.51
2023-02-27T02:42:25.962Z,-0.54
2023-02-27T02:46:14.197Z,-0.46
2023-02-27T02:49:54.614Z,-0.42
2023-02-27T02:53:38.139Z,-0.37
2023-02-27T02:57:40.958Z,-0.38
2023-02-27T03:01:34.471Z,-0.40
2023-02-27T03:05:33.821Z,-0.42
2023-02-27T03:09:23.915Z,-0.54
2023-02-27T03:13:11.800Z,-0.62
2023-02-27T03:17:02.849Z,-0.65
2023-02-27T03:20:57.626Z,-0.73
2023-02-27T03:24:46.639Z,-0.75
2023-02-27T03:28:34.337Z,-0.72
2023-02-27T03:32:24.798Z,-0.70
2023-02-27T03:36:44.490Z,-0.74
2023-02-27T03:40:32.089Z,-0.82
2023-02-27T03:44:49.224Z,-0.89
2023-02-27T03:49:13.685Z,-0.99
2023-02-27T03:53:03.144Z,-1.02
2023-02-27T03:57:20.386Z,-1.00
2023-02-27T04:04:09.459Z,-1.00
2023-02-27T04:09:01.064Z,-1.04
2023-02-27T04:13:39.094Z,-0.97
2023-02-27T04:18:09.483Z,-0.85
2023-02-27T04:23:02.780Z,-0.77
2023-02-27T04:27:32.123Z,-0.77
2023-02-27T04:32:16.308Z,-0.72
2023-02-27T04:36:51.076Z,-0.61
2023-02-27T04:41:23.133Z,-0.56
2023-02-27T04:45:52.260Z,-0.49
2023-02-27T04:50:29.932Z,-0.46
2023-02-27T04:55:07.663Z,-0.49
2023-02-27T05:04:16.715Z,-0.52
2023-02-27T05:08:48.895Z,-0.65
2023-02-27T05:13:30.228Z,-0.59
2023-02-27T05:18:11.204Z,-0.57
2023-02-27T05:22:46.350Z,-0.58
2023-02-27T05:36:12.676Z,-0.36
2023-02-27T05:40:42.431Z,-0.36
2023-02-27T05:44:58.667Z,-0.25
2023-02-27T05:49:28.947Z,-0.34
2023-02-27T05:53:58.331Z,0.09
2023-02-27T06:02:20.543Z,-0.07
2023-02-27T06:06:34.197Z,-0.16
2023-02-27T06:20:37.741Z,0.08
2023-02-27T06:41:15.470Z,0.39
2023-02-27T06:45:43.616Z,0.49
2023-02-27T06:50:14.338Z,0.49
2023-02-27T06:54:23.234Z,0.59
2023-02-27T07:03:11.373Z,0.79
2023-02-27T07:07:34.708Z,0.95
2023-02-27T07:12:33.747Z,1.08
2023-02-27T07:14:56.033Z,1.33
2023-02-27T07:18:48.562Z,1.37
2023-02-27T07:22:25.033Z,1.35
2023-02-27T07:26:03.614Z,1.64
2023-02-27T07:29:54.996Z,1.95
2023-02-27T07:33:54.171Z,1.95
2023-02-27T07:37:43.169Z,1.87
2023-02-27T07:41:31.301Z,2.01
2023-02-27T07:45:22.751Z,2.12
2023-02-27T07:49:09.242Z,2.07
2023-02-27T07:52:58.423Z,1.93
2023-02-27T07:56:58.936Z,2.05
2023-02-27T08:00:46.680Z,1.97
2023-02-27T08:04:35.408Z,1.94
2023-02-27T08:08:26.952Z,1.95
2023-02-27T08:12:14.520Z,2.10
2023-02-27T08:15:59.607Z,2.09
2023-02-27T08:19:47.160Z,2.22
2023-02-27T08:23:34.871Z,2.25
2023-02-27T08:27:22.851Z,2.36
2023-02-27T08:31:10.850Z,2.52
2023-02-27T08:34:49.455Z,2.59
2023-02-27T08:38:37.448Z,2.83
2023-02-27T08:42:19.983Z,2.90
2023-02-27T08:46:07.745Z,2.64
2023-02-27T08:49:57.826Z,2.77
2023-02-27T08:53:38.484Z,2.69
2023-02-27T08:57:20.830Z,2.76
2023-02-27T09:01:10.414Z,2.91
2023-02-27T09:04:58.152Z,2.90
2023-02-27T09:08:44.394Z,2.99
2023-02-27T09:12:32.032Z,3.05
2023-02-27T09:16:19.650Z,3.13
2023-02-27T09:20:07.308Z,3.20
2023-02-27T09:23:54.944Z,3.52
2023-02-27T09:27:43.054Z,3.51
2023-02-27T09:31:24.756Z,3.39
2023-02-27T09:35:12.356Z,3.50
2023-02-27T09:38:54.818Z,3.55
2023-02-27T09:42:54.490Z,3.91
2023-02-27T09:46:34.794Z,3.78
2023-02-27T09:50:09.224Z,3.73
2023-02-27T09:53:56.966Z,3.70
2023-02-27T09:57:56.559Z,3.85
2023-02-27T10:01:49.611Z,3.89
2023-02-27T10:05:39.878Z,3.95
2023-02-27T10:09:42.604Z,4.19
2023-02-27T10:13:21.771Z,4.24
2023-02-27T10:17:09.518Z,4.57
2023-02-27T10:20:56.149Z,4.36
2023-02-27T10:25:04.704Z,3.95
2023-02-27T10:28:52.251Z,3.98
2023-02-27T10:32:41.054Z,3.99
2023-02-27T10:36:35.046Z,3.81
2023-02-27T10:40:25.990Z,3.60
2023-02-27T10:44:13.581Z,3.61
2023-02-27T10:47:57.681Z,3.69
2023-02-27T10:51:54.179Z,3.64
2023-02-27T10:55:41.806Z,3.92
2023-02-27T10:59:28.527Z,3.99
2023-02-27T11:03:19.171Z,4.26
2023-02-27T11:07:07.436Z,4.44
2023-02-27T11:11:04.766Z,4.44
2023-02-27T11:15:10.636Z,4.35
2023-02-27T11:19:05.732Z,4.39
2023-02-27T11:22:52.471Z,4.19
2023-02-27T11:26:49.189Z,4.07
2023-02-27T11:30:42.431Z,4.02
2023-02-27T11:34:30.175Z,3.92
2023-02-27T11:38:32.724Z,3.85
2023-02-27T11:42:20.433Z,4.00
2023-02-27T11:46:10.147Z,4.25
2023-02-27T11:50:07.300Z,4.18
2023-02-27T11:53:59.096Z,4.17
2023-02-27T11:57:44.940Z,4.19
2023-02-27T12:01:44.441Z,4.30
2023-02-27T12:05:41.699Z,4.39
2023-02-27T12:09:29.886Z,4.79
2023-02-27T12:13:29.470Z,4.68
2023-02-27T12:17:17.781Z,4.65
2023-02-27T12:20:34.602Z,4.46
2023-02-27T12:24:23.838Z,4.12
2023-02-27T12:28:24.333Z,3.93
2023-02-27T12:32:16.966Z,3.87
2023-02-27T12:35:37.457Z,3.91
2023-02-27T12:39:25.250Z,3.83
2023-02-27T12:43:21.836Z,3.88
2023-02-27T12:47:04.962Z,3.92
2023-02-27T12:50:52.779Z,4.24
2023-02-27T12:55:01.489Z,4.24
2023-02-27T12:58:57.497Z,4.20
2023-02-27T13:02:43.346Z,4.17
2023-02-27T13:06:42.764Z,4.42
2023-02-27T13:10:36.235Z,4.57
2023-02-27T13:14:42.088Z,4.42
2023-02-27T13:18:37.003Z,4.41
2023-02-27T13:22:31.215Z,4.30
2023-02-27T13:26:19.123Z,4.24
2023-02-27T13:30:07.542Z,4.28
2023-02-27T13:33:59.783Z,4.32
2023-02-27T13:37:47.599Z,4.42
2023-02-27T13:41:36.359Z,4.45
2023-02-27T13:45:17.793Z,4.62
2023-02-27T13:49:28.745Z,4.69
2023-02-27T13:53:21.244Z,4.58
2023-02-27T13:57:25.814Z,4.38
2023-02-27T14:01:23.166Z,4.30
2023-02-27T14:04:53.487Z,4.34
2023-02-27T14:08:44.075Z,4.28
2023-02-27T14:12:44.747Z,4.08
2023-02-27T14:16:33.492Z,4.19
2023-02-27T14:20:15.187Z,4.24
2023-02-27T14:24:16.596Z,4.10
2023-02-27T14:28:04.388Z,4.05
2023-02-27T14:31:58.839Z,4.13
2023-02-27T14:35:36.655Z,3.95
2023-02-27T14:39:24.833Z,3.84
2023-02-27T14:43:24.981Z,3.82
2023-02-27T14:47:19.852Z,3.78
2023-02-27T14:51:08.227Z,3.99
2023-02-27T14:54:59.627Z,4.04
2023-02-27T14:59:04.325Z,4.06
2023-02-27T15:02:52.979Z,4.08
2023-02-27T15:06:54.294Z,4.12
2023-02-27T15:10:36.368Z,4.09
2023-02-27T15:14:24.912Z,3.95
2023-02-27T15:18:18.642Z,3.86
2023-02-27T15:22:09.440Z,3.90
2023-02-27T15:25:23.043Z,3.86
2023-02-27T15:29:00.146Z,3.81
2023-02-27T15:32:57.767Z,3.84
2023-02-27T15:36:46.006Z,3.80
2023-02-27T15:40:34.356Z,3.81
2023-02-27T15:44:22.781Z,3.82
2023-02-27T15:48:00.713Z,3.76
2023-02-27T15:51:32.389Z,3.73
2023-02-27T15:55:23.618Z,3.67
2023-02-27T15:59:29.858Z,3.65
2023-02-27T16:08:00.617Z,3.58
2023-02-27T16:12:30.557Z,3.59
2023-02-27T16:17:08.714Z,3.45
2023-02-27T16:21:48.472Z,3.50
2023-02-27T16:26:17.163Z,3.56
2023-02-27T16:30:47.957Z,3.52
2023-02-27T16:35:27.912Z,3.46
2023-02-27T16:39:59.424Z,3.43
2023-02-27T16:44:27.790Z,3.44
2023-02-27T16:48:56.143Z,3.48
2023-02-27T16:53:27.140Z,3.49
2023-02-27T16:57:58.025Z,3.44
2023-02-27T17:02:30.038Z,3.38
2023-02-27T17:07:06.493Z,3.27
2023-02-27T17:11:33.666Z,3.11
2023-02-27T17:16:03.712Z,3.02
2023-02-27T17:20:32.653Z,2.96
2023-02-27T17:25:04.067Z,2.84
2023-02-27T17:29:34.012Z,2.81
2023-02-27T17:34:05.419Z,2.75
2023-02-27T17:38:39.268Z,2.73
2023-02-27T17:43:10.712Z,2.70
2023-02-27T17:47:49.250Z,2.57
2023-02-27T17:52:21.627Z,2.36
2023-02-27T17:56:52.612Z,2.31
2023-02-27T18:01:24.063Z,2.22
2023-02-27T18:05:53.886Z,2.19
2023-02-27T18:09:40.303Z,2.10
2023-02-27T18:13:25.532Z,2.06
2023-02-27T18:16:54.106Z,2.07
2023-02-27T18:20:35.045Z,2.07
2023-02-27T18:23:47.673Z,2.09
2023-02-27T18:27:30.253Z,2.09
2023-02-27T18:31:04.423Z,2.09
2023-02-27T18:34:07.569Z,2.15
2023-02-27T18:37:24.965Z,2.21
2023-02-27T18:41:00.879Z,2.23
2023-02-27T18:44:42.697Z,2.25
2023-02-27T18:48:14.034Z,2.28
2023-02-27T18:52:03.357Z,2.24
2023-02-27T18:55:41.079Z,2.21
2023-02-27T18:59:13.610Z,2.24
2023-02-27T19:02:29.346Z,2.27
2023-02-27T19:05:52.964Z,2.35
2023-02-27T19:09:41.272Z,2.39
2023-02-27T19:13:11.542Z,2.39
2023-02-27T19:16:42.488Z,2.41
2023-02-27T19:20:30.297Z,2.31
2023-02-27T19:23:56.104Z,2.15
2023-02-27T19:27:30.782Z,2.10
2023-02-27T19:31:00.885Z,2.18
2023-02-27T19:33:45.676Z,2.24
2023-02-27T19:36:54.747Z,2.23
2023-02-27T19:40:38.253Z,2.19
2023-02-27T19:44:02.764Z,2.08
2023-02-27T19:47:14.168Z,2.05
2023-02-27T19:51:03.947Z,2.11
2023-02-27T19:54:53.050Z,2.15
2023-02-27T19:58:45.123Z,2.09
2023-02-27T20:02:17.202Z,1.99
2023-02-27T20:06:17.540Z,1.95
2023-02-27T20:09:36.365Z,1.95
2023-02-27T20:13:03.390Z,1.98
2023-02-27T20:16:36.438Z,1.98
2023-02-27T20:20:12.061Z,1.98
2023-02-27T20:23:42.084Z,2.00
2023-02-27T20:27:23.458Z,1.88
2023-02-27T20:32:03.506Z,2.03
2023-02-27T20:34:57.172Z,1.99
2023-02-27T20:38:29.987Z,2.07
2023-02-27T20:42:19.064Z,2.09
2023-02-27T20:45:42.875Z,2.13
2023-02-27T20:49:27.454Z,2.14
2023-02-27T20:53:16.986Z,2.00
2023-02-27T20:56:52.522Z,1.84
2023-02-27T21:00:41.623Z,1.74
2023-02-27T21:04:30.099Z,1.69
2023-02-27T21:08:09.486Z,1.66
2023-02-27T21:11:53.290Z,1.70
2023-02-27T21:15:34.620Z,1.73
2023-02-27T21:19:23.473Z,1.86
2023-02-27T21:23:03.921Z,1.79
2023-02-27T21:27:00.598Z,1.73
2023-02-27T21:30:47.386Z,1.75
2023-02-27T21:34:34.149Z,1.91
2023-02-27T21:38:22.141Z,1.96
2023-02-27T21:42:02.026Z,1.93
2023-02-27T21:45:50.591Z,1.97
2023-02-27T21:49:39.989Z,1.93
2023-02-27T21:53:28.178Z,1.94
2023-02-27T21:57:16.327Z,1.93
2023-02-27T22:01:04.115Z,1.92
2023-02-27T22:04:52.113Z,1.82
2023-02-27T22:08:32.720Z,1.74
2023-02-27T22:12:20.867Z,1.73
2023-02-27T22:16:09.553Z,1.75
2023-02-27T22:19:57.898Z,1.78
2023-02-27T22:23:37.272Z,1.78
2023-02-27T22:27:21.012Z,1.72
2023-02-27T22:31:09.570Z,1.65
2023-02-27T22:34:57.753Z,1.60
2023-02-27T22:38:45.571Z,1.65
2023-02-27T22:42:33.433Z,1.68
2023-02-27T22:46:21.548Z,1.68
2023-02-27T22:50:15.282Z,1.69
2023-02-27T22:53:48.369Z,1.66
2023-02-27T22:57:36.332Z,1.56
2023-02-27T23:01:09.266Z,1.57
2023-02-27T23:04:57.003Z,1.53
2023-02-27T23:08:44.632Z,1.55
2023-02-27T23:12:27.348Z,1.56
2023-02-27T23:16:15.607Z,1.62
2023-02-27T23:20:03.288Z,1.60
2023-02-27T23:23:48.627Z,1.57
2023-02-27T23:27:35.069Z,1.63
2023-02-27T23:31:22.994Z,1.63
2023-02-27T23:35:10.997Z,1.58
2023-02-27T23:38:59.244Z,1.59
2023-02-27T23:42:47.055Z,1.53
2023-02-27T23:46:24.909Z,1.42
2023-02-27T23:50:12.648Z,1.42
2023-02-27T23:53:53.199Z,1.47
2023-02-27T23:57:40.866Z,1.42
